Time;durP1;ratioP1;P1;durP2;ratioP2;P2;SDS_P1;SDS_P2;PMS_P1;PMS_P2;Temp;Humidity;BMP_temperature;BMP_pressure;BME280_temperature;BME280_humidity;BME280_pressure;Samples;Min_cycle;Max_cycle;Signal;HPM_P1;HPM_P2
2024/03/01 00:00:08;;;;;;;49.20;25.00;;;;;;;7.33;100.00;99656.56;218159;1256;140372;-75
2024/03/01 00:05:34;;;;;;;56.70;31.90;;;;;;;7.34;100.00;99653.09;218081;1256;140831;-75
2024/03/01 00:10:37;;;;;;;56.20;31.80;;;;;;;7.33;100.00;99655.95;217496;1255;141137;-75
2024/03/01 00:15:42;;;;;;;59.60;32.60;;;;;;;7.34;100.00;99648.30;217647;1256;140163;-73
2024/03/01 00:20:47;;;;;;;48.00;28.40;;;;;;;7.35;100.00;99645.89;217488;1256;140013;-74
2024/03/01 00:25:51;;;;;;;65.90;35.20;;;;;;;7.36;100.00;99643.14;217601;1255;141284;-75
2024/03/01 00:30:56;;;;;;;63.50;33.70;;;;;;;7.38;100.00;99632.44;217575;1257;140514;-75
2024/03/01 00:36:01;;;;;;;64.90;31.90;;;;;;;7.38;100.00;99624.80;217386;1256;141290;-75
2024/03/01 00:41:05;;;;;;;60.80;32.80;;;;;;;7.39;100.00;99626.39;217866;1256;141124;-75
2024/03/01 00:46:10;;;;;;;60.80;30.10;;;;;;;7.41;100.00;99623.56;217541;1256;139822;-74
2024/03/01 00:51:14;;;;;;;57.70;32.80;;;;;;;7.44;100.00;99624.03;217699;1256;140636;-74
2024/03/01 00:56:19;;;;;;;65.60;36.70;;;;;;;7.50;100.00;99617.79;218015;1259;140536;-75
2024/03/01 01:01:24;;;;;;;59.40;32.70;;;;;;;7.54;100.00;99616.83;217534;1260;140694;-74
2024/03/01 01:06:29;;;;;;;53.10;29.90;;;;;;;7.58;100.00;99617.80;219212;1255;140979;-74
2024/03/01 01:11:33;;;;;;;66.20;35.20;;;;;;;7.63;100.00;99611.11;220248;1255;140106;-75
2024/03/01 01:16:37;;;;;;;79.90;40.00;;;;;;;7.67;100.00;99605.13;217668;1256;140834;-75
2024/03/01 01:21:42;;;;;;;57.00;32.80;;;;;;;7.72;100.00;99603.95;217513;1257;141133;-74
2024/03/01 01:26:47;;;;;;;67.80;35.10;;;;;;;7.71;100.00;99605.09;217295;1257;140326;-74
2024/03/01 01:31:51;;;;;;;85.40;42.20;;;;;;;7.70;100.00;99591.83;217372;1257;141028;-75
2024/03/01 01:36:56;;;;;;;72.10;37.50;;;;;;;7.66;100.00;99582.16;217962;1257;140532;-74
2024/03/01 01:42:00;;;;;;;66.10;38.00;;;;;;;7.63;100.00;99579.87;218168;1257;139975;-75
2024/03/01 01:47:06;;;;;;;75.70;36.60;;;;;;;7.62;100.00;99576.96;217539;1260;140477;-74
2024/03/01 01:52:11;;;;;;;63.50;34.50;;;;;;;7.60;100.00;99563.88;217311;1257;140625;-75
2024/03/01 01:57:15;;;;;;;69.20;37.50;;;;;;;7.57;100.00;99557.08;217708;1258;140222;-74
2024/03/01 02:02:20;;;;;;;70.20;40.60;;;;;;;7.55;100.00;99545.19;217409;1260;140710;-75
2024/03/01 02:07:25;;;;;;;71.50;40.50;;;;;;;7.55;100.00;99533.20;217649;1258;141376;-75
2024/03/01 02:12:31;;;;;;;72.30;36.20;;;;;;;7.53;100.00;99528.48;217317;1258;141118;-75
2024/03/01 02:17:35;;;;;;;73.80;41.90;;;;;;;7.52;100.00;99519.67;218496;1258;140586;-75
2024/03/01 02:22:47;;;;;;;71.20;35.10;;;;;;;7.51;100.00;99519.11;218017;1256;140686;-74
2024/03/01 02:27:52;;;;;;;59.60;35.50;;;;;;;7.49;100.00;99517.30;217387;1260;140358;-74
2024/03/01 02:33:01;;;;;;;71.20;38.10;;;;;;;7.46;100.00;99511.52;217708;1256;140744;-74
2024/03/01 02:38:05;;;;;;;71.90;39.40;;;;;;;7.45;100.00;99506.84;217650;1259;141436;-74
2024/03/01 02:43:10;;;;;;;69.70;39.40;;;;;;;7.44;100.00;99502.69;220450;1255;140703;-75
2024/03/01 02:48:14;;;;;;;67.40;37.70;;;;;;;7.43;100.00;99491.48;220302;1255;141440;-74
2024/03/01 02:53:19;;;;;;;70.80;39.00;;;;;;;7.45;100.00;99480.73;220348;1255;141687;-75
2024/03/01 02:58:24;;;;;;;54.50;31.50;;;;;;;7.47;100.00;99472.84;220233;1256;142390;-75
2024/03/01 03:03:28;;;;;;;69.80;38.60;;;;;;;7.49;100.00;99473.42;220242;1255;141369;-76
2024/03/01 03:08:32;;;;;;;71.00;38.80;;;;;;;7.49;100.00;99473.32;220241;1256;141340;-76
2024/03/01 03:13:40;;;;;;;63.30;36.10;;;;;;;7.48;100.00;99469.44;220471;1255;140405;-75
2024/03/01 03:18:47;;;;;;;78.90;43.10;;;;;;;7.49;100.00;99464.54;220301;1255;141421;-75
2024/03/01 03:27:02;;;;;;;71.10;39.20;;;;;;;7.52;100.00;99459.89;214437;1301;636146;-75
2024/03/01 03:32:07;;;;;;;62.80;37.00;;;;;;;7.48;100.00;99464.92;215970;1274;139532;-74
2024/03/01 03:37:13;;;;;;;65.40;38.30;;;;;;;7.46;100.00;99462.41;215686;1270;294038;-74
2024/03/01 03:42:17;;;;;;;66.30;34.90;;;;;;;7.41;100.00;99458.41;216254;1272;139452;-74
2024/03/01 03:47:22;;;;;;;70.30;37.10;;;;;;;7.37;100.00;99461.72;216115;1268;139058;-75
2024/03/01 03:52:25;;;;;;;76.90;38.90;;;;;;;7.33;100.00;99455.63;216506;1272;139618;-74
2024/03/01 03:57:30;;;;;;;68.10;37.10;;;;;;;7.30;100.00;99453.02;216307;1272;140148;-74
2024/03/01 04:02:35;;;;;;;66.80;36.60;;;;;;;7.28;100.00;99458.20;217383;1262;140699;-75
2024/03/01 04:07:40;;;;;;;67.40;39.20;;;;;;;7.25;100.00;99453.02;217324;1263;139069;-74
2024/03/01 04:12:44;;;;;;;63.20;34.80;;;;;;;7.24;100.00;99455.02;217332;1261;138960;-75
2024/03/01 04:17:49;;;;;;;74.20;41.10;;;;;;;7.23;100.00;99450.45;217138;1262;139377;-75
2024/03/01 04:22:53;;;;;;;77.70;38.40;;;;;;;7.23;100.00;99446.38;217404;1262;139958;-74
2024/03/01 04:27:58;;;;;;;67.90;36.60;;;;;;;7.23;100.00;99446.05;218078;1257;140635;-74
2024/03/01 04:33:04;;;;;;;72.00;39.40;;;;;;;7.22;100.00;99452.42;217316;1258;141865;-75
2024/03/01 04:38:09;;;;;;;73.60;41.40;;;;;;;7.21;100.00;99446.48;217408;1257;138858;-75
2024/03/01 04:43:14;;;;;;;81.40;40.30;;;;;;;7.21;100.00;99446.56;220271;1257;139333;-76
2024/03/01 04:48:19;;;;;;;76.90;43.80;;;;;;;7.21;100.00;99439.80;217924;1257;139452;-75
2024/03/01 04:53:24;;;;;;;68.90;36.80;;;;;;;7.23;100.00;99446.10;217297;1258;139033;-74
2024/03/01 04:58:28;;;;;;;70.60;42.00;;;;;;;7.23;100.00;99447.85;217256;1261;139579;-75
2024/03/01 05:03:36;;;;;;;75.20;41.20;;;;;;;7.23;100.00;99448.70;219852;1257;139605;-75
2024/03/01 05:08:46;;;;;;;75.00;39.40;;;;;;;7.26;100.00;99448.67;217247;1258;140129;-75
2024/03/01 05:13:52;;;;;;;74.10;36.30;;;;;;;7.29;100.00;99447.02;217498;1263;139121;-75
2024/03/01 05:18:56;;;;;;;67.30;40.10;;;;;;;7.29;100.00;99447.09;217193;1257;139437;-75
2024/03/01 05:24:01;;;;;;;73.10;39.80;;;;;;;7.30;100.00;99443.58;217309;1258;139466;-75
2024/03/01 05:29:05;;;;;;;66.00;39.40;;;;;;;7.31;100.00;99445.20;217254;1257;141261;-74
2024/03/01 05:34:10;;;;;;;77.50;42.70;;;;;;;7.31;100.00;99447.89;217581;1262;139970;-74
2024/03/01 05:39:18;;;;;;;69.60;38.20;;;;;;;7.30;100.00;99453.95;216998;1263;139295;-75
2024/03/01 05:44:22;;;;;;;71.60;44.20;;;;;;;7.28;100.00;99447.96;217502;1257;139475;-74
2024/03/01 05:49:27;;;;;;;69.90;38.60;;;;;;;7.29;100.00;99451.23;217201;1257;139929;-75
2024/03/01 05:54:31;;;;;;;78.20;44.50;;;;;;;7.30;100.00;99453.17;217062;1261;141181;-74
2024/03/01 05:59:35;;;;;;;76.50;39.70;;;;;;;7.35;100.00;99452.11;217567;1258;139661;-74
2024/03/01 06:04:40;;;;;;;79.70;44.30;;;;;;;7.40;100.00;99457.57;217310;1257;139307;-74
2024/03/01 06:09:45;;;;;;;78.00;45.10;;;;;;;7.45;100.00;99466.24;217357;1257;140530;-73
2024/03/01 06:14:49;;;;;;;69.80;43.00;;;;;;;7.52;100.00;99469.23;217371;1261;140762;-73
2024/03/01 06:19:53;;;;;;;79.60;44.40;;;;;;;7.59;100.00;99461.89;217515;1262;141141;-74
2024/03/01 06:24:58;;;;;;;82.20;45.00;;;;;;;7.68;100.00;99458.22;217115;1257;139206;-73
2024/03/01 06:30:03;;;;;;;66.30;35.80;;;;;;;7.75;100.00;99458.02;217360;1257;139196;-73
2024/03/01 06:35:07;;;;;;;70.00;42.50;;;;;;;7.83;100.00;99452.17;217539;1262;140682;-73
2024/03/01 06:40:12;;;;;;;81.50;43.40;;;;;;;7.93;100.00;99456.90;218609;1257;139602;-74
2024/03/01 06:45:17;;;;;;;77.70;42.50;;;;;;;8.03;100.00;99455.33;217541;1257;140452;-74
2024/03/01 06:50:21;;;;;;;69.90;41.00;;;;;;;8.12;100.00;99454.03;217477;1257;139888;-73
2024/03/01 06:55:25;;;;;;;67.00;36.80;;;;;;;8.21;100.00;99449.63;217123;1257;139122;-74
2024/03/01 07:00:31;;;;;;;73.10;41.20;;;;;;;8.33;100.00;99445.01;217310;1257;139948;-74
2024/03/01 07:05:34;;;;;;;75.30;43.50;;;;;;;8.47;100.00;99445.42;217188;1263;140657;-76
2024/03/01 07:10:39;;;;;;;74.90;42.00;;;;;;;8.55;100.00;99442.33;217398;1263;140388;-75
2024/03/01 07:15:43;;;;;;;79.90;42.40;;;;;;;8.58;100.00;99441.92;217467;1262;139982;-75
2024/03/01 07:20:47;;;;;;;92.90;44.90;;;;;;;8.59;100.00;99447.10;217714;1257;140072;-74
2024/03/01 07:25:51;;;;;;;77.20;40.50;;;;;;;8.63;100.00;99442.73;217639;1257;142251;-75
2024/03/01 07:30:55;;;;;;;73.70;40.90;;;;;;;8.67;100.00;99432.59;217780;1257;139695;-74
2024/03/01 07:35:59;;;;;;;78.70;42.20;;;;;;;8.72;99.97;99426.91;217398;1257;139889;-75
2024/03/01 07:41:03;;;;;;;79.50;45.20;;;;;;;8.84;100.00;99427.41;217472;1262;140856;-73
2024/03/01 07:46:07;;;;;;;75.40;40.20;;;;;;;8.99;100.00;99419.86;217483;1262;139911;-77
2024/03/01 07:51:12;;;;;;;79.20;43.60;;;;;;;9.10;99.92;99428.17;217429;1257;140045;-74
2024/03/01 07:56:21;;;;;;;74.00;39.00;;;;;;;9.21;99.48;99432.58;217629;1262;140956;-76
2024/03/01 08:01:25;;;;;;;71.50;41.30;;;;;;;9.29;99.26;99433.39;217564;1257;141019;-76
2024/03/01 08:06:30;;;;;;;69.30;39.00;;;;;;;9.46;99.58;99430.30;217475;1259;140155;-76
2024/03/01 08:11:42;;;;;;;60.40;36.40;;;;;;;9.60;99.11;99426.48;218720;1260;139644;-76
2024/03/01 08:16:51;;;;;;;51.60;31.50;;;;;;;9.71;98.55;99422.08;217240;1257;140145;-76
2024/03/01 08:22:09;;;;;;;70.30;40.20;;;;;;;9.75;97.93;99416.80;217237;1257;139983;-77
2024/03/01 08:27:21;;;;;;;79.70;39.50;;;;;;;9.76;97.95;99419.11;217175;1257;139814;-76
2024/03/01 08:32:40;;;;;;;72.10;39.00;;;;;;;9.75;97.18;99415.56;219120;1257;140153;-77
2024/03/01 08:37:45;;;;;;;69.20;40.10;;;;;;;9.70;97.03;99399.38;217365;1258;140187;-77
2024/03/01 08:42:50;;;;;;;65.50;38.00;;;;;;;9.73;97.10;99385.24;219757;1257;139080;-76
2024/03/01 08:48:10;;;;;;;71.30;37.20;;;;;;;9.82;96.82;99377.59;217298;1257;140298;-76
2024/03/01 08:53:36;;;;;;;68.60;40.70;;;;;;;9.93;97.17;99371.05;217267;1262;139488;-76
2024/03/01 08:58:41;;;;;;;61.30;37.20;;;;;;;10.02;96.71;99378.14;217023;1262;140806;-76
2024/03/01 09:03:44;;;;;;;71.30;40.70;;;;;;;10.09;96.65;99383.05;217321;1257;141192;-76
2024/03/01 09:08:49;;;;;;;63.50;37.50;;;;;;;10.17;96.54;99375.58;217743;1257;140241;-78
2024/03/01 09:13:54;;;;;;;57.50;35.80;;;;;;;10.32;96.74;99370.02;218467;1256;141231;-76
2024/03/01 09:18:58;;;;;;;65.60;36.90;;;;;;;10.48;96.35;99364.54;217830;1259;140699;-76
2024/03/01 09:24:04;;;;;;;50.40;31.70;;;;;;;10.56;95.97;99361.57;217899;1257;139867;-76
2024/03/01 09:29:22;;;;;;;63.40;39.70;;;;;;;10.67;95.60;99357.80;217785;1256;140036;-76
2024/03/01 09:34:34;;;;;;;61.00;34.40;;;;;;;10.73;95.15;99359.30;217839;1259;152015;-76
2024/03/01 09:39:39;;;;;;;63.00;37.10;;;;;;;10.77;94.69;99364.44;217893;1255;141365;-75
2024/03/01 09:45:13;;;;;;;64.00;37.10;;;;;;;10.78;94.44;99369.05;217910;1257;140799;-76
2024/03/01 09:50:30;;;;;;;63.60;37.50;;;;;;;11.02;95.30;99364.04;217971;1256;140007;-75
2024/03/01 09:55:37;;;;;;;69.90;36.50;;;;;;;11.30;94.79;99363.98;217815;1259;140329;-76
2024/03/01 10:01:00;;;;;;;59.90;38.90;;;;;;;11.50;94.46;99369.39;218751;1259;140028;-76
2024/03/01 10:06:17;;;;;;;58.10;34.00;;;;;;;11.83;94.49;99373.89;218354;1256;139475;-77
2024/03/01 10:11:43;;;;;;;60.30;33.60;;;;;;;12.26;94.02;99368.33;218189;1256;140108;-75
2024/03/01 10:17:04;;;;;;;57.90;31.50;;;;;;;12.48;92.37;99367.11;217771;1257;140391;-75
2024/03/01 10:22:42;;;;;;;63.30;35.40;;;;;;;12.63;91.90;99360.75;217826;1255;140387;-76
2024/03/01 10:27:52;;;;;;;53.70;30.10;;;;;;;12.91;91.85;99352.09;218687;1255;139949;-77
2024/03/01 10:33:20;;;;;;;59.70;29.60;;;;;;;13.13;91.16;99342.16;218112;1259;140560;-78
2024/03/01 10:39:01;;;;;;;46.30;30.40;;;;;;;13.24;89.77;99339.86;220775;1256;140083;-78
2024/03/01 10:44:08;;;;;;;47.40;29.50;;;;;;;13.30;88.97;99351.79;219309;1256;140999;-78
2024/03/01 10:49:34;;;;;;;48.20;29.60;;;;;;;13.17;87.67;99352.78;217703;1256;140720;-78
2024/03/01 10:54:42;;;;;;;48.20;29.70;;;;;;;13.09;87.19;99356.42;217659;1256;139702;-78
2024/03/01 10:59:53;;;;;;;55.00;34.00;;;;;;;13.00;86.97;99365.25;217866;1256;140959;-78
2024/03/01 11:05:17;;;;;;;57.70;34.10;;;;;;;13.08;87.10;99361.24;217753;1257;140131;-78
2024/03/01 11:10:38;;;;;;;50.70;32.40;;;;;;;13.39;86.97;99360.86;217732;1257;140436;-78
2024/03/01 11:15:42;;;;;;;44.20;30.10;;;;;;;13.59;86.39;99358.47;217756;1256;139971;-78
2024/03/01 11:20:57;;;;;;;54.90;32.50;;;;;;;13.60;85.51;99353.33;217833;1255;139738;-77
2024/03/01 11:26:14;;;;;;;52.50;32.40;;;;;;;13.48;84.71;99344.98;217845;1257;139789;-79
2024/03/01 11:31:22;;;;;;;47.20;31.70;;;;;;;13.41;85.13;99331.11;217598;1257;139856;-78
2024/03/01 11:37:01;;;;;;;52.60;33.30;;;;;;;13.42;84.67;99324.95;217805;1256;140138;-77
2024/03/01 11:42:12;;;;;;;54.70;33.60;;;;;;;13.55;84.95;99325.30;217453;1257;140445;-77
2024/03/01 11:47:31;;;;;;;47.60;32.50;;;;;;;13.91;85.23;99312.19;217659;1257;140697;-78
2024/03/01 11:52:53;;;;;;;49.90;31.80;;;;;;;14.19;84.62;99316.10;218051;1256;140660;-79
2024/03/01 11:58:18;;;;;;;48.50;31.10;;;;;;;14.31;83.87;99304.80;217753;1257;139564;-78
2024/03/01 12:04:14;;;;;;;44.30;28.90;;;;;;;14.33;83.50;99292.15;217755;1256;140569;-78
2024/03/01 12:09:34;;;;;;;49.20;30.70;;;;;;;14.38;83.03;99280.27;217708;1259;140983;-78
2024/03/01 12:14:44;;;;;;;42.30;26.40;;;;;;;14.36;82.12;99272.52;219312;1258;139545;-77
2024/03/01 12:20:04;;;;;;;46.40;29.20;;;;;;;14.16;80.83;99265.98;217843;1259;140280;-77
2024/03/01 12:25:10;;;;;;;40.80;29.70;;;;;;;14.05;80.71;99264.61;220584;1255;140329;-76
2024/03/01 12:30:30;;;;;;;37.00;24.20;;;;;;;14.18;81.13;99267.27;220069;1256;139886;-75
2024/03/01 12:35:43;;;;;;;47.40;27.20;;;;;;;14.29;80.46;99277.98;217765;1255;140106;-75
2024/03/01 12:41:20;;;;;;;47.80;29.00;;;;;;;14.27;79.89;99284.48;218185;1259;139555;-75
2024/03/01 12:46:49;;;;;;;53.20;29.30;;;;;;;13.93;79.16;99286.36;217225;1255;139848;-76
2024/03/01 12:52:15;;;;;;;41.20;27.70;;;;;;;13.82;79.25;99296.36;217731;1259;140874;-76
2024/03/01 12:57:53;;;;;;;46.20;30.10;;;;;;;13.78;79.33;99298.08;217740;1257;140809;-75
2024/03/01 13:03:16;;;;;;;47.30;29.30;;;;;;;13.77;79.46;99277.08;217920;1256;141636;-75
2024/03/01 13:08:38;;;;;;;43.10;27.90;;;;;;;13.64;79.18;99279.48;217888;1257;139979;-75
2024/03/01 13:13:54;;;;;;;42.00;27.30;;;;;;;13.54;79.18;99285.88;217699;1259;140983;-76
2024/03/01 13:19:07;;;;;;;47.60;28.90;;;;;;;13.41;78.71;99287.67;218259;1255;141751;-75
2024/03/01 13:24:29;;;;;;;49.40;28.60;;;;;;;13.27;78.87;99280.88;217395;1257;141372;-76
2024/03/01 13:29:34;;;;;;;47.10;30.80;;;;;;;13.24;79.20;99286.44;217604;1256;141133;-78
2024/03/01 13:34:49;;;;;;;45.90;29.30;;;;;;;13.21;79.27;99294.14;218576;1256;140571;-75
2024/03/01 13:40:14;;;;;;;45.50;28.90;;;;;;;13.22;79.08;99288.58;217508;1256;140881;-78
2024/03/01 13:45:29;;;;;;;45.80;26.80;;;;;;;13.22;79.51;99286.65;217802;1256;140967;-79
2024/03/01 13:50:47;;;;;;;49.30;31.00;;;;;;;13.20;79.16;99288.98;217692;1259;140825;-77
2024/03/01 13:55:53;;;;;;;44.80;27.50;;;;;;;13.12;79.19;99280.98;217900;1256;140512;-77
2024/03/01 14:01:01;;;;;;;44.60;27.10;;;;;;;13.05;79.27;99272.39;217602;1259;141020;-75
2024/03/01 14:06:07;;;;;;;47.20;30.70;;;;;;;13.03;79.59;99268.42;217685;1255;140708;-77
2024/03/01 14:11:12;;;;;;;52.50;28.20;;;;;;;13.00;79.44;99272.31;217617;1256;140555;-76
2024/03/01 14:16:17;;;;;;;51.40;30.90;;;;;;;12.85;79.27;99284.11;217792;1257;141854;-76
2024/03/01 14:21:22;;;;;;;53.70;30.70;;;;;;;12.72;79.32;99288.23;217768;1259;140691;-76
2024/03/01 14:26:26;;;;;;;49.80;30.70;;;;;;;12.58;79.41;99282.52;218432;1256;139929;-74
2024/03/01 14:31:30;;;;;;;57.40;29.90;;;;;;;12.50;79.64;99272.92;218444;1257;140685;-75
2024/03/01 14:36:47;;;;;;;52.30;32.40;;;;;;;12.44;79.92;99270.69;218328;1257;140352;-77
2024/03/01 14:41:52;;;;;;;54.90;34.20;;;;;;;12.43;80.09;99270.10;218124;1259;140648;-76
2024/03/01 14:46:56;;;;;;;55.30;31.80;;;;;;;12.39;80.04;99273.11;217780;1254;139513;-76
2024/03/01 14:52:10;;;;;;;47.00;30.50;;;;;;;12.25;79.85;99266.60;218255;1256;140026;-76
2024/03/01 14:57:16;;;;;;;46.70;31.30;;;;;;;12.16;80.15;99262.02;217905;1254;139614;-76
2024/03/01 15:02:20;;;;;;;56.20;34.70;;;;;;;12.15;80.15;99256.92;218065;1259;140872;-76
2024/03/01 15:07:25;;;;;;;43.30;29.00;;;;;;;12.13;80.15;99251.56;218668;1255;139870;-76
2024/03/01 15:12:32;;;;;;;44.80;28.50;;;;;;;12.04;80.01;99265.80;218136;1254;141561;-76
2024/03/01 15:17:37;;;;;;;47.60;29.10;;;;;;;11.93;80.45;99266.30;218175;1257;140980;-76
2024/03/01 15:22:53;;;;;;;48.00;31.20;;;;;;;11.83;80.25;99272.95;217911;1258;140125;-76
2024/03/01 15:27:57;;;;;;;48.40;33.30;;;;;;;11.67;80.52;99282.07;217975;1254;140074;-78
2024/03/01 15:33:02;;;;;;;52.20;31.20;;;;;;;11.58;80.84;99282.52;217712;1259;140330;-78
2024/03/01 15:38:08;;;;;;;58.10;31.50;;;;;;;11.46;80.74;99287.20;215203;1254;4217649;-79
2024/03/01 15:43:13;;;;;;;56.50;32.70;;;;;;;11.36;80.99;99278.76;217879;1253;140843;-78
2024/03/01 15:48:17;;;;;;;58.50;33.50;;;;;;;11.31;81.26;99274.50;218060;1254;140505;-76
2024/03/01 15:53:21;;;;;;;51.00;32.80;;;;;;;11.24;81.17;99289.79;217838;1256;140659;-77
2024/03/01 15:58:27;;;;;;;52.00;30.80;;;;;;;11.12;81.33;99294.61;218091;1254;140199;-78
2024/03/01 16:03:32;;;;;;;63.60;34.80;;;;;;;11.02;81.03;99299.52;218214;1258;140720;-77
2024/03/01 16:08:38;;;;;;;57.00;33.20;;;;;;;10.88;81.11;99301.61;218116;1259;139890;-76
2024/03/01 16:13:43;;;;;;;58.70;32.70;;;;;;;10.72;80.96;99304.17;217858;1256;140108;-76
2024/03/01 16:18:52;;;;;;;61.90;37.10;;;;;;;10.58;81.39;99304.52;218054;1258;139699;-75
2024/03/01 16:23:56;;;;;;;60.50;33.90;;;;;;;10.47;81.53;99298.86;220152;1258;140640;-77
2024/03/01 16:29:00;;;;;;;61.30;33.70;;;;;;;10.37;81.57;99301.92;218210;1254;141052;-76
2024/03/01 16:34:05;;;;;;;72.40;41.40;;;;;;;10.27;81.65;99305.50;218025;1254;139870;-76
2024/03/01 16:39:23;;;;;;;63.10;35.00;;;;;;;10.16;81.84;99311.42;218199;1254;141155;-77
2024/03/01 16:44:43;;;;;;;64.90;38.00;;;;;;;10.08;82.03;99319.02;218481;1254;140091;-77
2024/03/01 16:49:48;;;;;;;59.30;32.60;;;;;;;10.01;82.24;99320.88;217969;1254;139499;-74
2024/03/01 16:54:52;;;;;;;64.00;35.50;;;;;;;9.95;82.26;99321.45;217995;1257;140829;-76
2024/03/01 17:00:00;;;;;;;55.90;33.50;;;;;;;9.88;82.40;99324.42;218143;1254;141300;-76
2024/03/01 17:05:31;;;;;;;54.80;34.40;;;;;;;9.82;82.58;99331.27;217485;1254;140797;-75
2024/03/01 17:10:36;;;;;;;68.00;38.20;;;;;;;9.77;82.58;99332.61;217957;1254;139697;-74
2024/03/01 17:15:40;;;;;;;57.40;33.50;;;;;;;9.74;82.93;99334.05;218157;1258;140637;-77
2024/03/01 17:20:47;;;;;;;56.30;32.90;;;;;;;9.72;82.91;99333.52;217882;1257;140586;-75
2024/03/01 17:25:52;;;;;;;62.40;34.40;;;;;;;9.73;83.24;99330.93;218091;1254;139895;-75
2024/03/01 17:30:56;;;;;;;64.40;37.20;;;;;;;9.70;83.22;99336.73;218082;1259;139602;-74
2024/03/01 17:36:00;;;;;;;55.30;30.70;;;;;;;9.67;83.51;99342.79;218653;1254;139575;-75
2024/03/01 17:41:04;;;;;;;57.30;34.10;;;;;;;9.63;83.36;99343.72;217918;1259;139313;-74
2024/03/01 17:46:07;;;;;;;59.80;32.60;;;;;;;9.57;83.71;99347.13;217845;1258;140473;-75
2024/03/01 17:51:11;;;;;;;52.90;29.90;;;;;;;9.53;83.71;99345.66;217772;1259;140665;-75
2024/03/01 17:56:16;;;;;;;50.60;29.40;;;;;;;9.50;83.99;99344.96;217996;1254;140480;-74
2024/03/01 18:01:20;;;;;;;53.10;32.20;;;;;;;9.45;83.98;99340.73;217983;1254;140308;-77
2024/03/01 18:06:24;;;;;;;48.60;30.90;;;;;;;9.41;84.19;99343.11;218605;1259;140416;-76
2024/03/01 18:11:27;;;;;;;48.70;28.20;;;;;;;9.38;84.10;99338.79;217781;1257;139480;-75
2024/03/01 18:16:31;;;;;;;44.60;28.60;;;;;;;9.35;84.27;99346.75;217511;1254;140035;-75
2024/03/01 18:21:38;;;;;;;52.50;27.90;;;;;;;9.30;84.37;99343.94;217646;1255;139717;-76
2024/03/01 18:26:42;;;;;;;53.50;30.40;;;;;;;9.26;84.61;99352.95;217795;1254;141125;-75
2024/03/01 18:31:46;;;;;;;48.90;29.10;;;;;;;9.21;84.50;99359.13;217600;1258;141001;-74
2024/03/01 18:36:50;;;;;;;51.30;30.00;;;;;;;9.17;84.68;99364.10;217782;1254;209310;-75
2024/03/01 18:41:54;;;;;;;47.30;28.80;;;;;;;9.17;84.85;99363.73;217448;1254;140470;-74
2024/03/01 18:46:57;;;;;;;52.60;30.80;;;;;;;9.15;84.75;99364.88;217625;1259;142755;-75
2024/03/01 18:52:02;;;;;;;55.70;31.30;;;;;;;9.11;84.69;99367.45;217503;1254;140255;-75
2024/03/01 18:57:09;;;;;;;48.90;27.70;;;;;;;9.04;84.98;99370.60;217658;1258;140359;-74
2024/03/01 19:02:14;;;;;;;49.50;29.70;;;;;;;9.00;84.91;99370.50;217955;1258;140514;-75
2024/03/01 19:07:27;;;;;;;52.10;29.90;;;;;;;8.95;85.24;99375.87;218299;1258;139933;-75
2024/03/01 19:12:31;;;;;;;60.00;30.40;;;;;;;8.90;85.31;99372.08;217852;1259;141436;-75
2024/03/01 19:17:36;;;;;;;58.20;32.00;;;;;;;8.83;85.50;99371.46;217949;1254;139762;-74
2024/03/01 19:22:40;;;;;;;47.10;27.50;;;;;;;8.78;85.60;99371.30;217834;1258;139750;-74
2024/03/01 19:27:45;;;;;;;48.90;28.00;;;;;;;8.71;85.88;99373.11;217932;1259;139814;-75
2024/03/01 19:32:49;;;;;;;51.70;30.40;;;;;;;8.61;86.33;99373.17;217921;1259;139738;-74
2024/03/01 19:37:54;;;;;;;51.70;30.40;;;;;;;8.51;86.79;99375.15;217850;1259;140378;-75
2024/03/01 19:43:03;;;;;;;52.10;28.50;;;;;;;8.48;86.93;99373.85;218941;1257;141071;-75
2024/03/01 19:48:07;;;;;;;49.30;31.50;;;;;;;8.39;87.12;99378.52;219218;1254;139207;-74
2024/03/01 19:53:13;;;;;;;55.30;32.20;;;;;;;8.35;87.67;99373.11;217989;1254;139513;-75
2024/03/01 19:58:18;;;;;;;53.40;30.90;;;;;;;8.29;87.74;99372.08;217954;1254;140597;-75
2024/03/01 20:03:23;;;;;;;59.50;31.30;;;;;;;8.22;87.95;99371.50;218026;1259;140169;-75
2024/03/01 20:08:28;;;;;;;60.80;36.10;;;;;;;8.14;88.45;99371.98;220340;1254;141111;-75
2024/03/01 20:13:32;;;;;;;58.90;33.20;;;;;;;8.05;88.92;99367.94;217805;1258;140060;-75
2024/03/01 20:18:38;;;;;;;66.20;34.40;;;;;;;8.00;88.94;99369.60;217729;1258;139579;-75
2024/03/01 20:23:42;;;;;;;58.40;34.20;;;;;;;7.96;89.41;99371.63;217835;1254;141265;-74
2024/03/01 20:28:52;;;;;;;63.60;32.30;;;;;;;7.91;89.62;99373.20;217709;1260;139429;-74
2024/03/01 20:33:56;;;;;;;55.90;31.20;;;;;;;7.87;89.50;99371.82;217794;1260;139440;-76
2024/03/01 20:38:59;;;;;;;51.80;29.20;;;;;;;7.82;90.01;99370.14;217777;1260;143181;-74
2024/03/01 20:44:04;;;;;;;59.10;30.40;;;;;;;7.78;90.27;99368.45;217896;1259;141267;-74
2024/03/01 20:49:07;;;;;;;54.80;31.10;;;;;;;7.76;90.38;99369.05;217701;1259;139690;-75
2024/03/01 20:54:11;;;;;;;54.80;31.50;;;;;;;7.72;90.70;99369.23;217943;1254;139380;-74
2024/03/01 20:59:15;;;;;;;68.30;34.90;;;;;;;7.67;90.98;99375.38;218243;1260;140792;-75
2024/03/01 21:04:20;;;;;;;61.20;35.30;;;;;;;7.61;91.21;99376.08;217939;1254;139376;-75
2024/03/01 21:09:25;;;;;;;54.40;31.60;;;;;;;7.56;91.19;99378.84;218318;1254;140141;-74
2024/03/01 21:14:34;;;;;;;68.50;35.20;;;;;;;7.53;91.59;99378.55;218280;1260;139823;-74
2024/03/01 21:19:39;;;;;;;60.30;34.70;;;;;;;7.50;91.80;99382.02;218029;1257;140658;-74
2024/03/01 21:24:43;;;;;;;61.10;32.00;;;;;;;7.49;91.91;99382.00;218070;1257;140236;-73
2024/03/01 21:29:46;;;;;;;63.90;35.30;;;;;;;7.44;91.99;99379.35;217957;1258;140606;-74
2024/03/01 21:34:50;;;;;;;57.50;34.10;;;;;;;7.40;92.25;99378.62;218907;1256;138987;-74
2024/03/01 21:39:55;;;;;;;51.40;31.30;;;;;;;7.41;92.06;99373.39;218021;1260;140948;-75
2024/03/01 21:44:58;;;;;;;60.80;31.30;;;;;;;7.41;92.09;99371.96;217922;1259;140335;-74
2024/03/01 21:50:02;;;;;;;61.60;31.20;;;;;;;7.40;92.37;99370.17;218013;1259;140607;-74
2024/03/01 21:55:08;;;;;;;65.20;34.20;;;;;;;7.40;91.86;99367.94;217713;1259;140676;-74
2024/03/01 22:00:14;;;;;;;56.70;31.80;;;;;;;7.38;92.26;99370.07;217932;1254;140411;-74
2024/03/01 22:05:22;;;;;;;;;;;;;;;7.36;92.28;99365.12;217876;1257;140015;-74
2024/03/01 22:10:27;;;;;;;58.70;31.90;;;;;;;7.33;92.34;99364.00;218199;1260;127773;-74
2024/03/01 22:15:31;;;;;;;57.00;31.90;;;;;;;7.31;92.52;99362.40;217896;1260;139705;-75
2024/03/01 22:20:35;;;;;;;61.80;33.10;;;;;;;7.26;92.26;99357.40;219092;1254;140394;-74
2024/03/01 22:25:40;;;;;;;57.10;30.00;;;;;;;7.23;92.89;99350.14;217953;1258;139499;-74
2024/03/01 22:30:45;;;;;;;60.60;32.50;;;;;;;7.18;92.85;99348.14;217998;1254;139945;-75
2024/03/01 22:35:50;;;;;;;54.90;28.30;;;;;;;7.15;92.57;99342.74;217944;1254;141342;-74
2024/03/01 22:40:54;;;;;;;61.70;35.00;;;;;;;7.14;92.88;99337.58;218052;1258;140599;-75
2024/03/01 22:46:03;;;;;;;48.90;28.50;;;;;;;7.16;93.04;99335.93;218514;1257;140279;-74
2024/03/01 22:51:10;;;;;;;55.40;31.60;;;;;;;7.16;92.66;99342.62;218016;1254;141137;-74
2024/03/01 22:56:35;;;;;;;62.80;33.20;;;;;;;7.14;92.65;99345.00;218038;1256;139786;-73
2024/03/01 23:01:39;;;;;;;55.80;29.80;;;;;;;7.10;92.34;99342.27;217965;1255;140460;-73
2024/03/01 23:06:44;;;;;;;60.00;32.10;;;;;;;7.02;92.10;99346.52;217940;1254;140042;-74
2024/03/01 23:11:48;;;;;;;49.50;30.50;;;;;;;6.97;92.49;99340.03;217979;1254;139631;-73